createdAt,value
2022-12-14T00:01:23.246Z,95.82
2022-12-14T00:03:50.881Z,96.01
2022-12-14T00:06:23.064Z,96.17
2022-12-14T00:08:52.452Z,96.15
2022-12-14T00:11:19.764Z,96.05
2022-12-14T00:13:48.959Z,95.69
2022-12-14T00:16:18.048Z,95.41
2022-12-14T00:18:48.932Z,95.53
2022-12-14T00:21:15.490Z,95.81
2022-12-14T00:23:44.081Z,95.51
2022-12-14T00:26:25.956Z,95.45
2022-12-14T00:28:54.077Z,95.15
2022-12-14T00:31:21.836Z,95.21
2022-12-14T00:33:48.839Z,95.21
2022-12-14T00:36:15.349Z,95.43
2022-12-14T00:38:42.625Z,95.10
2022-12-14T00:41:10.052Z,94.97
2022-12-14T00:43:36.591Z,95.15
2022-12-14T00:46:03.255Z,94.80
2022-12-14T00:48:30.506Z,94.64
2022-12-14T00:50:57.677Z,94.49
2022-12-14T00:53:25.406Z,95.03
2022-12-14T00:55:52.314Z,94.58
2022-12-14T00:58:21.038Z,94.85
2022-12-14T01:00:48.555Z,95.21
2022-12-14T01:03:15.661Z,95.00
2022-12-14T01:05:42.524Z,94.89
2022-12-14T01:08:15.709Z,94.64
2022-12-14T01:10:42.060Z,94.67
2022-12-14T01:13:10.472Z,94.64
2022-12-14T01:15:37.125Z,94.18
2022-12-14T01:18:03.699Z,94.33
2022-12-14T01:20:30.650Z,93.47
2022-12-14T01:22:56.961Z,93.87
2022-12-14T01:25:23.511Z,94.11
2022-12-14T01:27:49.941Z,93.75
2022-12-14T01:30:18.174Z,94.60
2022-12-14T01:32:44.921Z,94.35
2022-12-14T01:35:11.330Z,94.13
2022-12-14T01:37:37.757Z,94.38
2022-12-14T01:40:04.485Z,93.82
2022-12-14T01:42:30.813Z,94.87
2022-12-14T01:44:58.350Z,94.35
2022-12-14T01:47:34.109Z,94.55
2022-12-14T01:50:14.206Z,94.63
2022-12-14T01:52:43.952Z,94.50
2022-12-14T01:55:22.714Z,94.44
2022-12-14T01:58:12.357Z,94.62
2022-12-14T02:00:39.154Z,94.55
2022-12-14T02:03:08.840Z,94.34
2022-12-14T02:05:41.114Z,94.32
2022-12-14T02:08:08.685Z,94.73
2022-12-14T02:10:35.977Z,94.56
2022-12-14T02:13:23.865Z,94.35
2022-12-14T02:15:51.447Z,94.90
2022-12-14T02:18:24.859Z,94.80
2022-12-14T02:21:12.517Z,94.80
2022-12-14T02:24:16.156Z,95.12
2022-12-14T02:27:10.405Z,95.34
2022-12-14T02:29:49.140Z,95.27
2022-12-14T02:32:36.486Z,95.30
2022-12-14T02:35:15.543Z,95.06
2022-12-14T02:37:41.794Z,95.25
2022-12-14T02:40:37.591Z,95.49
2022-12-14T02:43:31.118Z,94.96
2022-12-14T02:46:21.312Z,95.02
2022-12-14T02:49:10.565Z,94.86
2022-12-14T02:51:46.014Z,94.88
2022-12-14T02:54:43.485Z,94.41
2022-12-14T02:57:34.137Z,94.87
2022-12-14T03:00:02.690Z,94.88
2022-12-14T03:02:30.464Z,94.38
2022-12-14T03:04:56.996Z,94.52
2022-12-14T03:07:40.342Z,94.24
2022-12-14T03:10:11.145Z,94.49
2022-12-14T03:12:42.682Z,94.92
2022-12-14T03:15:12.190Z,94.78
2022-12-14T03:17:39.717Z,94.96
2022-12-14T03:20:12.649Z,95.88
2022-12-14T03:22:56.642Z,95.68
2022-12-14T03:25:44.461Z,96.07
2022-12-14T03:28:18.258Z,95.97
2022-12-14T03:31:00.920Z,95.28
2022-12-14T03:33:31.384Z,95.51
2022-12-14T03:36:10.602Z,95.61
2022-12-14T03:38:43.686Z,96.18
2022-12-14T03:41:27.693Z,96.26
2022-12-14T03:44:03.781Z,95.92
2022-12-14T03:46:55.510Z,96.55
2022-12-14T03:49:38.534Z,96.20
2022-12-14T03:52:25.328Z,96.23
2022-12-14T03:55:05.273Z,95.73
2022-12-14T03:58:07.875Z,96.38
2022-12-14T04:00:45.718Z,95.84
2022-12-14T04:03:29.331Z,95.70
2022-12-14T04:06:03.823Z,96.12
2022-12-14T04:08:57.652Z,96.54
2022-12-14T04:11:49.692Z,96.57
2022-12-14T04:14:52.721Z,96.56
2022-12-14T04:17:44.578Z,96.58
2022-12-14T04:20:16.946Z,96.50
2022-12-14T04:22:56.662Z,96.93
2022-12-14T04:25:54.115Z,96.92
2022-12-14T04:28:47.933Z,96.94
2022-12-14T04:31:20.030Z,97.29
2022-12-14T04:34:06.593Z,97.19
2022-12-14T04:36:36.584Z,97.37
2022-12-14T04:39:08.823Z,97.94
2022-12-14T04:41:38.105Z,97.65
2022-12-14T04:44:15.667Z,97.82
2022-12-14T04:46:44.034Z,98.18
2022-12-14T04:49:23.631Z,97.91
2022-12-14T04:52:05.065Z,98.27
2022-12-14T04:54:41.384Z,98.33
2022-12-14T04:57:19.334Z,98.05
2022-12-14T04:59:47.042Z,98.20
2022-12-14T05:02:28.412Z,97.82
2022-12-14T05:05:15.057Z,98.33
2022-12-14T05:07:52.460Z,98.47
2022-12-14T05:10:24.697Z,98.67
2022-12-14T05:13:18.682Z,98.21
2022-12-14T05:15:54.369Z,98.10
2022-12-14T05:18:21.248Z,98.36
2022-12-14T05:20:48.465Z,98.27
2022-12-14T05:23:16.093Z,98.24
2022-12-14T05:25:43.129Z,97.72
2022-12-14T05:28:10.884Z,97.90
2022-12-14T05:30:37.268Z,98.07
2022-12-14T05:33:03.694Z,98.53
2022-12-14T05:35:30.103Z,98.36
2022-12-14T05:37:56.457Z,98.23
2022-12-14T05:40:22.912Z,98.34
2022-12-14T05:42:55.225Z,98.53
2022-12-14T05:45:22.171Z,98.37
2022-12-14T05:47:48.581Z,98.27
2022-12-14T05:50:14.943Z,98.16
2022-12-14T05:52:41.344Z,98.50
2022-12-14T05:55:08.373Z,98.15
2022-12-14T05:57:34.762Z,98.57
2022-12-14T06:00:01.110Z,98.27
2022-12-14T06:02:27.634Z,98.28
2022-12-14T06:04:54.095Z,98.47
2022-12-14T06:07:24.507Z,98.04
2022-12-14T06:09:54.020Z,98.37
2022-12-14T06:12:20.445Z,98.09
2022-12-14T06:14:46.770Z,98.32
2022-12-14T06:17:13.204Z,98.17
2022-12-14T06:19:39.528Z,98.36
2022-12-14T06:22:05.922Z,98.51
2022-12-14T06:24:32.348Z,98.05
2022-12-14T06:26:58.752Z,97.98
2022-12-14T06:29:26.017Z,98.09
2022-12-14T06:31:52.418Z,98.26
2022-12-14T06:34:21.268Z,97.91
2022-12-14T06:36:50.010Z,98.66
2022-12-14T06:39:17.160Z,98.14
2022-12-14T06:41:43.913Z,98.19
2022-12-14T06:44:13.021Z,98.44
2022-12-14T06:46:39.867Z,98.82
2022-12-14T06:49:06.914Z,99.09
2022-12-14T06:51:38.939Z,99.10
2022-12-14T06:54:05.381Z,99.11
2022-12-14T06:56:32.145Z,98.46
2022-12-14T06:58:58.538Z,98.89
2022-12-14T07:01:25.990Z,99.09
2022-12-14T07:03:57.153Z,99.17
2022-12-14T07:06:24.952Z,99.39
2022-12-14T07:08:56.336Z,99.28
2022-12-14T07:11:23.018Z,98.91
2022-12-14T07:13:49.454Z,99.14
2022-12-14T07:16:20.055Z,99.55
2022-12-14T07:18:47.074Z,99.39
2022-12-14T07:21:16.228Z,99.04
2022-12-14T07:23:44.609Z,100.00
2022-12-14T07:26:15.415Z,100.00
2022-12-14T07:28:42.693Z,99.26
2022-12-14T07:31:18.143Z,100.00
2022-12-14T07:33:44.847Z,99.33
2022-12-14T07:36:19.565Z,100.00
2022-12-14T07:38:48.791Z,99.37
2022-12-14T07:41:22.852Z,100.00
2022-12-14T07:43:50.643Z,100.00
2022-12-14T07:46:19.984Z,100.00
2022-12-14T07:48:48.027Z,100.00
2022-12-14T07:51:17.504Z,100.00
2022-12-14T07:53:44.438Z,99.78
2022-12-14T07:56:16.298Z,99.99
2022-12-14T07:58:42.971Z,99.95
2022-12-14T08:01:21.196Z,99.84
2022-12-14T08:03:51.006Z,100.00
2022-12-14T08:06:19.349Z,100.00
2022-12-14T08:08:45.711Z,100.00
2022-12-14T08:11:13.064Z,100.00
2022-12-14T08:13:39.776Z,100.00
2022-12-14T08:16:08.381Z,99.84
2022-12-14T08:18:35.253Z,99.66
2022-12-14T08:21:02.058Z,100.00
2022-12-14T08:23:29.241Z,100.00
2022-12-14T08:25:57.808Z,99.67
2022-12-14T08:28:25.746Z,99.92
2022-12-14T08:30:52.833Z,100.00
2022-12-14T08:33:20.609Z,100.00
2022-12-14T08:35:47.037Z,99.89
2022-12-14T08:38:13.551Z,100.00
2022-12-14T08:40:40.092Z,100.00
2022-12-14T08:43:07.433Z,100.00
2022-12-14T08:45:33.941Z,100.00
2022-12-14T08:48:00.684Z,100.00
2022-12-14T08:50:29.065Z,100.00
2022-12-14T08:52:55.983Z,100.00
2022-12-14T08:55:28.298Z,100.00
2022-12-14T08:57:56.797Z,100.00
2022-12-14T09:00:23.250Z,100.00
2022-12-14T09:02:51.001Z,100.00
2022-12-14T09:05:17.567Z,100.00
2022-12-14T09:07:43.929Z,100.00
2022-12-14T09:10:10.943Z,99.41
2022-12-14T09:12:37.349Z,99.50
2022-12-14T09:15:04.105Z,98.62
2022-12-14T09:17:30.491Z,97.93
2022-12-14T09:19:58.009Z,98.46
2022-12-14T09:22:24.531Z,97.67
2022-12-14T09:24:52.183Z,96.05
2022-12-14T09:27:18.834Z,92.87
2022-12-14T09:29:45.276Z,89.21
2022-12-14T09:32:11.779Z,84.68
2022-12-14T09:34:38.151Z,81.45
2022-12-14T09:37:07.342Z,79.01
2022-12-14T09:39:34.704Z,75.90
2022-12-14T09:42:35.635Z,74.32
2022-12-14T09:45:21.780Z,71.83
2022-12-14T09:47:59.858Z,70.12
2022-12-14T09:50:27.222Z,70.43
2022-12-14T09:52:55.734Z,70.42
2022-12-14T09:55:26.779Z,69.94
2022-12-14T09:58:05.474Z,70.11
2022-12-14T10:00:35.849Z,71.93
2022-12-14T10:03:34.828Z,70.99
2022-12-14T10:06:21.259Z,69.67
2022-12-14T10:08:57.044Z,68.42
2022-12-14T10:11:43.207Z,66.69
2022-12-14T10:14:23.327Z,68.17
2022-12-14T10:17:32.052Z,65.21
2022-12-14T10:20:30.489Z,63.20
2022-12-14T10:22:57.960Z,61.87
2022-12-14T10:25:25.927Z,61.42
2022-12-14T10:28:13.111Z,65.52
2022-12-14T10:30:44.481Z,69.63
2022-12-14T10:33:23.250Z,71.79
2022-12-14T10:35:55.411Z,64.94
2022-12-14T10:38:41.875Z,60.35
2022-12-14T10:41:43.719Z,59.02
2022-12-14T10:44:23.222Z,55.88
2022-12-14T10:47:19.172Z,55.74
2022-12-14T10:50:03.483Z,53.41
2022-12-14T10:52:37.653Z,50.60
2022-12-14T10:55:13.599Z,50.93
2022-12-14T10:57:39.962Z,50.88
2022-12-14T11:00:22.591Z,50.33
2022-12-14T11:02:54.778Z,49.57
2022-12-14T11:05:28.742Z,48.88
2022-12-14T11:07:59.424Z,48.29
2022-12-14T11:10:27.474Z,47.74
2022-12-14T11:12:59.451Z,47.92
2022-12-14T11:15:34.384Z,48.37
2022-12-14T11:18:19.840Z,49.73
2022-12-14T11:20:58.481Z,51.58
2022-12-14T11:23:27.798Z,57.71
2022-12-14T11:25:57.565Z,57.48
2022-12-14T11:28:36.119Z,58.87
2022-12-14T11:31:05.456Z,60.65
2022-12-14T11:33:34.368Z,63.44
2022-12-14T11:36:01.067Z,67.54
2022-12-14T11:38:29.475Z,70.07
2022-12-14T11:40:56.913Z,68.24
2022-12-14T11:43:30.378Z,67.18
2022-12-14T11:45:57.576Z,68.74
2022-12-14T11:48:27.929Z,67.29
2022-12-14T11:51:14.905Z,61.20
2022-12-14T11:53:41.638Z,55.71
2022-12-14T11:56:15.329Z,52.83
2022-12-14T11:58:52.822Z,51.31
2022-12-14T12:01:25.462Z,47.74
2022-12-14T12:03:55.186Z,46.21
2022-12-14T12:06:25.358Z,45.92
2022-12-14T12:08:57.787Z,45.29
2022-12-14T12:11:28.875Z,46.25
2022-12-14T12:14:15.005Z,45.52
2022-12-14T12:16:54.690Z,45.42
2022-12-14T12:19:30.925Z,44.74
2022-12-14T12:22:01.075Z,47.79
2022-12-14T12:25:01.143Z,48.04
2022-12-14T12:27:27.511Z,47.69
2022-12-14T12:30:34.759Z,46.75
2022-12-14T12:33:25.822Z,46.50
2022-12-14T12:35:59.789Z,44.87
2022-12-14T12:38:57.275Z,44.77
2022-12-14T12:41:28.317Z,43.90
2022-12-14T12:44:00.906Z,42.58
2022-12-14T12:46:43.972Z,43.60
2022-12-14T12:49:22.363Z,45.18
2022-12-14T12:51:54.250Z,46.03
2022-12-14T12:54:28.712Z,44.55
2022-12-14T12:56:57.582Z,45.33
2022-12-14T12:59:36.329Z,45.18
2022-12-14T13:02:22.001Z,45.63
2022-12-14T13:04:52.807Z,44.75
2022-12-14T13:07:28.283Z,44.99
2022-12-14T13:10:15.744Z,46.10
2022-12-14T13:12:48.674Z,46.25
2022-12-14T13:15:27.805Z,46.94
2022-12-14T13:18:01.146Z,49.24
2022-12-14T13:20:34.151Z,56.71
2022-12-14T13:23:21.648Z,61.70
2022-12-14T13:26:55.558Z,62.89
2022-12-14T13:30:05.400Z,68.00
2022-12-14T13:33:09.244Z,68.24
2022-12-14T13:35:57.159Z,67.54
2022-12-14T13:38:45.726Z,68.30
2022-12-14T13:41:20.961Z,68.67
2022-12-14T13:44:13.270Z,69.47
2022-12-14T13:46:40.062Z,69.67
2022-12-14T13:49:17.181Z,68.58
2022-12-14T13:51:49.980Z,70.00
2022-12-14T13:54:30.318Z,69.63
2022-12-14T13:57:07.827Z,70.85
2022-12-14T13:59:39.577Z,70.63
2022-12-14T14:02:26.624Z,70.66
2022-12-14T14:05:22.340Z,70.47
2022-12-14T14:08:01.390Z,71.53
2022-12-14T14:10:41.612Z,71.21
2022-12-14T14:13:29.467Z,71.35
2022-12-14T14:16:27.944Z,71.71
2022-12-14T14:18:59.679Z,72.19
2022-12-14T14:21:58.926Z,71.62
2022-12-14T14:24:28.045Z,72.54
2022-12-14T14:27:21.738Z,73.21
2022-12-14T14:29:50.197Z,73.71
2022-12-14T14:32:40.808Z,72.81
2022-12-14T14:35:20.463Z,73.61
2022-12-14T14:37:57.191Z,74.11
2022-12-14T14:40:51.344Z,73.85
2022-12-14T14:43:16.829Z,73.99
2022-12-14T14:45:51.305Z,74.55
2022-12-14T14:48:35.084Z,75.33
2022-12-14T14:51:10.392Z,75.99
2022-12-14T14:53:39.191Z,76.13
2022-12-14T14:56:29.689Z,76.57
2022-12-14T14:59:14.607Z,76.81
2022-12-14T15:02:00.521Z,77.33
2022-12-14T15:04:46.102Z,77.43
2022-12-14T15:07:18.586Z,77.52
2022-12-14T15:09:57.960Z,77.56
2022-12-14T15:12:41.731Z,77.14
2022-12-14T15:15:17.390Z,77.62
2022-12-14T15:17:43.834Z,77.86
2022-12-14T15:20:26.779Z,78.87
2022-12-14T15:22:55.854Z,79.72
2022-12-14T15:25:28.178Z,80.22
2022-12-14T15:27:57.862Z,80.71
2022-12-14T15:30:28.940Z,80.75
2022-12-14T15:33:01.260Z,80.68
2022-12-14T15:35:34.369Z,81.50
2022-12-14T15:38:04.169Z,81.46
2022-12-14T15:40:31.965Z,81.45
2022-12-14T15:43:01.577Z,81.57
2022-12-14T15:45:30.630Z,81.77
2022-12-14T15:48:31.505Z,82.54
2022-12-14T15:51:03.141Z,83.02
2022-12-14T15:53:39.744Z,83.67
2022-12-14T15:56:29.082Z,84.40
2022-12-14T15:59:02.013Z,84.44
2022-12-14T16:01:37.478Z,84.04
2022-12-14T16:04:07.626Z,83.80
2022-12-14T16:06:40.287Z,84.32
2022-12-14T16:09:24.042Z,84.60
2022-12-14T16:11:56.880Z,84.49
2022-12-14T16:14:33.564Z,85.11
2022-12-14T16:17:00.840Z,85.21
2022-12-14T16:19:45.000Z,85.77
2022-12-14T16:22:22.522Z,85.47
2022-12-14T16:25:00.875Z,85.86
2022-12-14T16:27:28.286Z,86.49
2022-12-14T16:30:17.630Z,86.40
2022-12-14T16:32:50.197Z,86.52
2022-12-14T16:35:23.610Z,87.20
2022-12-14T16:37:54.782Z,87.56
2022-12-14T16:40:34.723Z,87.94
2022-12-14T16:43:02.424Z,87.64
2022-12-14T16:46:05.839Z,88.13
2022-12-14T16:48:35.822Z,88.06
2022-12-14T16:51:37.923Z,88.33
2022-12-14T16:54:22.440Z,88.83
2022-12-14T16:56:53.222Z,89.39
2022-12-14T16:59:28.044Z,89.17
2022-12-14T17:01:54.964Z,89.17
2022-12-14T17:04:22.543Z,89.36
2022-12-14T17:06:54.505Z,89.92
2022-12-14T17:09:27.459Z,89.81
2022-12-14T17:11:57.593Z,90.46
2022-12-14T17:14:24.522Z,91.04
2022-12-14T17:17:00.827Z,90.40
2022-12-14T17:19:33.362Z,90.68
2022-12-14T17:22:01.044Z,91.35
2022-12-14T17:24:37.324Z,91.80
2022-12-14T17:27:04.160Z,91.72
2022-12-14T17:29:31.775Z,91.60
2022-12-14T17:32:01.165Z,91.69
2022-12-14T17:34:29.565Z,90.64
2022-12-14T17:36:56.349Z,89.46
2022-12-14T17:39:24.693Z,90.49
2022-12-14T17:41:51.182Z,90.85
2022-12-14T17:44:20.507Z,92.12
2022-12-14T17:46:48.772Z,92.54
2022-12-14T17:49:16.632Z,92.45
2022-12-14T17:51:46.340Z,92.70
2022-12-14T17:54:16.459Z,92.99
2022-12-14T17:56:44.149Z,93.14
2022-12-14T17:59:10.561Z,93.14
2022-12-14T18:01:37.129Z,93.44
2022-12-14T18:04:04.218Z,93.64
2022-12-14T18:06:30.638Z,93.77
2022-12-14T18:08:57.059Z,94.04
2022-12-14T18:11:24.685Z,94.28
2022-12-14T18:13:51.356Z,94.70
2022-12-14T18:16:19.855Z,94.16
2022-12-14T18:18:46.223Z,94.61
2022-12-14T18:21:22.435Z,94.66
2022-12-14T18:23:50.012Z,94.60
2022-12-14T18:26:20.681Z,95.02
2022-12-14T18:28:48.511Z,95.38
2022-12-14T18:31:37.159Z,95.36
2022-12-14T18:34:05.213Z,95.83
2022-12-14T18:36:31.653Z,95.32
2022-12-14T18:38:58.261Z,95.74
2022-12-14T18:41:26.364Z,95.83
2022-12-14T18:43:54.236Z,95.69
2022-12-14T18:46:20.729Z,95.63
2022-12-14T18:48:47.119Z,95.70
2022-12-14T18:51:23.357Z,95.91
2022-12-14T18:53:50.728Z,95.67
2022-12-14T18:56:17.515Z,95.83
2022-12-14T18:58:45.306Z,95.92
2022-12-14T19:01:23.716Z,96.28
2022-12-14T19:03:50.789Z,96.80
2022-12-14T19:09:08.967Z,96.64
2022-12-14T19:11:41.572Z,96.34
2022-12-14T19:14:08.290Z,96.15
2022-12-14T19:16:34.893Z,96.92
2022-12-14T19:19:01.434Z,96.40
2022-12-14T19:21:29.348Z,97.16
2022-12-14T19:23:55.982Z,96.45
2022-12-14T19:26:22.403Z,97.12
2022-12-14T19:28:48.912Z,97.38
2022-12-14T19:31:15.358Z,96.65
2022-12-14T19:33:41.939Z,96.75
2022-12-14T19:36:09.255Z,96.84
2022-12-14T19:38:36.329Z,96.57
2022-12-14T19:41:08.851Z,96.66
2022-12-14T19:43:35.802Z,97.26
2022-12-14T19:46:11.003Z,97.75
2022-12-14T19:48:42.129Z,97.75
2022-12-14T19:51:10.912Z,97.43
2022-12-14T19:53:38.605Z,97.48
2022-12-14T19:56:05.556Z,97.12
2022-12-14T19:58:32.269Z,97.16
2022-12-14T20:00:58.746Z,97.00
2022-12-14T20:03:25.372Z,97.44
2022-12-14T20:05:58.509Z,97.48
2022-12-14T20:08:25.623Z,97.55
2022-12-14T20:10:55.374Z,97.45
2022-12-14T20:13:23.581Z,97.93
2022-12-14T20:15:58.301Z,98.02
2022-12-14T20:18:26.228Z,97.74
2022-12-14T20:20:52.888Z,97.91
2022-12-14T20:23:23.084Z,97.63
2022-12-14T20:25:49.886Z,97.48
2022-12-14T20:28:16.322Z,98.19
2022-12-14T20:30:44.486Z,98.29
2022-12-14T20:33:10.873Z,97.70
2022-12-14T20:35:37.377Z,98.15
2022-12-14T20:38:03.765Z,98.04
2022-12-14T20:40:37.761Z,98.17
2022-12-14T20:43:05.088Z,98.20
2022-12-14T20:45:31.538Z,97.62
2022-12-14T20:47:57.881Z,97.93
2022-12-14T20:50:24.358Z,97.72
2022-12-14T20:52:50.690Z,97.73
2022-12-14T20:55:17.218Z,97.64
2022-12-14T20:57:43.596Z,97.91
2022-12-14T21:00:10.517Z,98.14
2022-12-14T21:02:36.925Z,97.76
2022-12-14T21:05:03.888Z,98.38
2022-12-14T21:07:31.646Z,97.85
2022-12-14T21:09:58.250Z,98.06
2022-12-14T21:12:25.670Z,98.17
2022-12-14T21:14:54.304Z,98.13
2022-12-14T21:17:23.117Z,98.39
2022-12-14T21:19:49.934Z,98.09
2022-12-14T21:22:21.210Z,98.28
2022-12-14T21:25:05.221Z,98.03
2022-12-14T21:27:33.740Z,97.96
2022-12-14T21:30:00.404Z,98.00
2022-12-14T21:32:27.150Z,97.96
2022-12-14T21:34:53.524Z,98.19
2022-12-14T21:37:20.479Z,97.84
2022-12-14T21:39:53.890Z,97.67
2022-12-14T21:42:28.307Z,98.03
2022-12-14T21:44:55.206Z,97.87
2022-12-14T21:47:25.678Z,97.91
2022-12-14T21:49:52.146Z,97.58
2022-12-14T21:52:22.579Z,97.48
2022-12-14T21:54:49.050Z,97.67
2022-12-14T21:57:36.027Z,97.49
2022-12-14T22:00:03.815Z,97.43
2022-12-14T22:02:30.422Z,97.73
2022-12-14T22:04:57.113Z,97.59
2022-12-14T22:07:29.724Z,97.81
2022-12-14T22:09:56.127Z,97.91
2022-12-14T22:12:22.470Z,98.10
2022-12-14T22:14:49.900Z,97.73
2022-12-14T22:17:16.754Z,98.23
2022-12-14T22:19:43.106Z,98.25
2022-12-14T22:22:15.018Z,97.60
2022-12-14T22:24:41.690Z,97.78
2022-12-14T22:27:09.922Z,97.61
2022-12-14T22:29:36.325Z,98.14
2022-12-14T22:32:02.864Z,97.74
2022-12-14T22:34:29.303Z,97.71
2022-12-14T22:36:55.621Z,98.03
2022-12-14T22:39:21.938Z,97.69
2022-12-14T22:41:48.766Z,97.92
2022-12-14T22:44:15.122Z,98.06
2022-12-14T22:46:41.522Z,97.96
2022-12-14T22:49:08.722Z,98.08
2022-12-14T22:51:35.625Z,98.35
2022-12-14T22:54:02.597Z,98.43
2022-12-14T22:56:38.882Z,98.25
2022-12-14T22:59:19.378Z,98.06
2022-12-14T23:01:49.862Z,98.10
2022-12-14T23:04:17.250Z,98.04
2022-12-14T23:06:43.866Z,98.10
2022-12-14T23:09:28.920Z,98.42
2022-12-14T23:12:16.127Z,99.08
2022-12-14T23:15:04.746Z,98.37
2022-12-14T23:17:49.429Z,98.22
2022-12-14T23:20:34.254Z,97.98
2022-12-14T23:23:19.300Z,98.88
2022-12-14T23:26:04.176Z,98.61
2022-12-14T23:28:50.342Z,98.71
2022-12-14T23:31:35.121Z,98.97
2022-12-14T23:34:19.866Z,98.92
2022-12-14T23:37:04.541Z,99.21
2022-12-14T23:39:49.466Z,98.30
2022-12-14T23:42:34.216Z,99.12
2022-12-14T23:45:18.915Z,99.01
2022-12-14T23:48:03.655Z,99.38
2022-12-14T23:50:48.567Z,98.65
2022-12-14T23:53:33.670Z,99.02
2022-12-14T23:56:19.046Z,99.13
2022-12-14T23:59:03.860Z,98.80
